Time;durP1;ratioP1;P1;durP2;ratioP2;P2;SDS_P1;SDS_P2;PMS_P1;PMS_P2;Temp;Humidity;BMP_temperature;BMP_pressure;BME280_temperature;BME280_humidity;BME280_pressure;Samples;Min_cycle;Max_cycle;Signal;HPM_P1;HPM_P2
2023/12/01 00:01:16;;;;;;;50.88;21.60;;;;;;;-0.87;100.00;100309.72;5052687;28;20106;-66
2023/12/01 00:03:41;;;;;;;55.03;24.13;;;;;;;-0.92;100.00;100299.59;5052979;28;20100;-66
2023/12/01 00:06:07;;;;;;;49.35;23.65;;;;;;;-0.96;100.00;100314.72;5053067;28;20049;-66
2023/12/01 00:08:32;;;;;;;47.38;20.25;;;;;;;-1.02;100.00;100313.81;5053199;28;20033;-67
2023/12/01 00:10:57;;;;;;;45.92;20.35;;;;;;;-1.05;100.00;100311.56;5053145;28;20024;-67
2023/12/01 00:13:23;;;;;;;46.53;20.13;;;;;;;-1.13;100.00;100318.19;5052842;28;20060;-66
2023/12/01 00:15:48;;;;;;;39.45;15.77;;;;;;;-1.10;100.00;100320.44;5052526;28;20060;-66
2023/12/01 00:18:13;;;;;;;44.15;17.60;;;;;;;-1.23;100.00;100311.75;5052511;28;20029;-66
2023/12/01 00:20:39;;;;;;;40.45;16.52;;;;;;;-1.22;100.00;100316.91;5052346;28;20025;-66
2023/12/01 00:23:04;;;;;;;45.58;17.52;;;;;;;-1.14;100.00;100327.44;5052489;28;20075;-66
2023/12/01 00:25:29;;;;;;;53.00;22.20;;;;;;;-1.13;100.00;100323.63;5052386;28;20025;-66
2023/12/01 00:27:54;;;;;;;50.00;18.90;;;;;;;-1.10;100.00;100322.34;5052518;28;20082;-66
2023/12/01 00:30:20;;;;;;;44.83;18.65;;;;;;;-1.09;100.00;100321.28;5052343;28;20032;-66
2023/12/01 00:32:46;;;;;;;47.08;19.95;;;;;;;-1.11;100.00;100321.50;5052073;28;20037;-66
2023/12/01 00:35:11;;;;;;;50.38;19.45;;;;;;;-1.17;100.00;100335.19;5051769;28;20025;-65
2023/12/01 00:37:37;;;;;;;45.60;18.98;;;;;;;-1.23;100.00;100325.31;5051304;28;20025;-66
2023/12/01 00:40:03;;;;;;;54.50;24.77;;;;;;;-1.23;100.00;100328.03;5051427;28;20059;-67
2023/12/01 00:42:28;;;;;;;52.00;24.40;;;;;;;-1.22;100.00;100329.69;5051538;28;20080;-66
2023/12/01 00:44:54;;;;;;;48.33;20.55;;;;;;;-1.24;100.00;100338.06;5051255;28;20049;-65
2023/12/01 00:47:19;;;;;;;54.58;22.98;;;;;;;-1.30;100.00;100333.59;5051591;28;20396;-66
2023/12/01 00:49:44;;;;;;;46.88;19.42;;;;;;;-1.31;100.00;100330.06;5058080;28;20141;-66
2023/12/01 00:52:10;;;;;;;46.75;19.00;;;;;;;-1.32;100.00;100341.16;5057881;28;20625;-66
2023/12/01 00:54:35;;;;;;;50.78;21.13;;;;;;;-1.41;100.00;100337.97;5067280;28;20177;-65
2023/12/01 00:57:00;;;;;;;48.83;20.48;;;;;;;-1.44;100.00;100339.28;5051447;28;20021;-66
2023/12/01 00:59:26;;;;;;;48.28;18.05;;;;;;;-1.45;100.00;100340.34;5051202;28;20037;-65
2023/12/01 01:01:51;;;;;;;46.08;18.55;;;;;;;-1.41;100.00;100352.38;5051589;28;20076;-66
2023/12/01 01:04:16;;;;;;;44.00;19.15;;;;;;;-1.44;100.00;100342.00;5051487;28;20155;-65
2023/12/01 01:06:41;;;;;;;47.97;18.90;;;;;;;-1.35;100.00;100349.78;5051848;28;20075;-66
2023/12/01 01:09:08;;;;;;;49.95;20.65;;;;;;;-1.40;100.00;100358.63;5051828;28;20029;-65
2023/12/01 01:11:33;;;;;;;45.90;17.33;;;;;;;-1.40;100.00;100361.34;5052210;28;20033;-66
2023/12/01 01:13:59;;;;;;;51.63;18.10;;;;;;;-1.33;100.00;100359.31;5051572;28;20025;-65
2023/12/01 01:16:24;;;;;;;47.38;18.25;;;;;;;-1.32;100.00;100358.25;5051307;28;20078;-66
2023/12/01 01:18:50;;;;;;;46.45;18.40;;;;;;;-1.34;100.00;100365.81;5050839;28;20025;-66
2023/12/01 01:21:16;;;;;;;46.88;16.45;;;;;;;-1.32;100.00;100362.88;5051094;28;20078;-66
2023/12/01 01:23:41;;;;;;;46.72;18.42;;;;;;;-1.42;100.00;100363.47;5051124;28;20103;-66
2023/12/01 01:26:07;;;;;;;46.13;18.33;;;;;;;-1.43;100.00;100368.09;5050888;28;20036;-64
2023/12/01 01:28:32;;;;;;;43.90;16.42;;;;;;;-1.43;100.00;100373.50;5049064;28;20037;-65
2023/12/01 01:30:57;;;;;;;47.03;18.02;;;;;;;-1.42;100.00;100366.19;5051242;28;20029;-66
2023/12/01 01:33:23;;;;;;;47.45;17.98;;;;;;;-1.48;100.00;100365.25;5051122;28;20047;-67
2023/12/01 01:35:48;;;;;;;49.72;19.25;;;;;;;-1.59;100.00;100364.19;5050718;28;20029;-66
2023/12/01 01:38:13;;;;;;;49.00;19.45;;;;;;;-1.56;100.00;100365.59;5050462;28;20028;-66
2023/12/01 01:40:38;;;;;;;43.88;17.80;;;;;;;-1.55;100.00;100369.97;5050405;28;20496;-66
2023/12/01 01:43:04;;;;;;;52.35;19.30;;;;;;;-1.54;100.00;100368.06;5050237;28;20124;-65
2023/12/01 01:45:29;;;;;;;46.65;17.88;;;;;;;-1.52;100.00;100371.38;5050081;28;20625;-66
2023/12/01 01:47:55;;;;;;;45.83;18.73;;;;;;;-1.49;100.00;100373.63;5050228;28;20032;-66
2023/12/01 01:50:22;;;;;;;49.47;19.88;;;;;;;-1.52;100.00;100377.66;5050316;28;20484;-66
2023/12/01 01:52:49;;;;;;;51.35;20.20;;;;;;;-1.52;100.00;100374.09;5050325;28;20079;-66
2023/12/01 01:55:14;;;;;;;47.67;18.52;;;;;;;-1.54;100.00;100376.22;5050792;28;20075;-66
2023/12/01 01:57:45;;;;;;;46.55;18.17;;;;;;;-1.53;100.00;100369.72;5050898;28;20485;-66
2023/12/01 02:00:16;;;;;;;49.22;19.10;;;;;;;-1.55;100.00;100386.25;5050804;28;20108;-66
2023/12/01 02:02:41;;;;;;;48.35;20.15;;;;;;;-1.51;100.00;100378.47;5050336;28;20416;-66
2023/12/01 02:05:12;;;;;;;48.22;19.95;;;;;;;-1.51;100.00;100379.28;5049977;28;20028;-66
2023/12/01 02:07:38;;;;;;;56.75;23.50;;;;;;;-1.55;100.00;100396.25;5049606;28;20083;-65
2023/12/01 02:10:04;;;;;;;57.17;20.83;;;;;;;-1.54;100.00;100381.63;5049847;28;20028;-65
2023/12/01 02:12:29;;;;;;;49.13;20.08;;;;;;;-1.52;100.00;100385.78;5050074;28;20025;-66
2023/12/01 02:14:55;;;;;;;84.32;38.42;;;;;;;-1.51;100.00;100389.31;5050234;28;20056;-66
2023/12/01 02:17:20;;;;;;;51.70;22.58;;;;;;;-1.57;100.00;100391.06;5050179;28;20529;-66
2023/12/01 02:19:45;;;;;;;51.53;21.77;;;;;;;-1.54;100.00;100387.91;5049871;28;20033;-65
2023/12/01 02:22:11;;;;;;;49.33;18.70;;;;;;;-1.53;100.00;100391.44;5050006;28;20542;-66
2023/12/01 02:24:36;;;;;;;45.45;17.25;;;;;;;-1.50;100.00;100389.06;5050176;28;20552;-66
2023/12/01 02:27:01;;;;;;;54.13;20.63;;;;;;;-1.50;100.00;100391.78;5050351;28;20055;-66
2023/12/01 02:29:26;;;;;;;55.22;20.83;;;;;;;-1.51;100.00;100386.59;5050093;28;20029;-66
2023/12/01 02:31:52;;;;;;;63.42;26.48;;;;;;;-1.54;100.00;100400.63;5049912;28;20763;-66
2023/12/01 02:34:21;;;;;;;59.92;23.02;;;;;;;-1.76;100.00;100393.09;5049680;28;20024;-66
2023/12/01 02:36:46;;;;;;;50.03;19.30;;;;;;;-1.74;100.00;100407.22;5049979;28;20032;-66
2023/12/01 02:39:13;;;;;;;51.65;18.42;;;;;;;-1.77;100.00;100402.28;5049664;28;20029;-66
2023/12/01 02:41:39;;;;;;;51.63;19.88;;;;;;;-1.80;100.00;100403.59;5049521;28;20033;-65
2023/12/01 02:44:04;;;;;;;57.38;21.38;;;;;;;-1.80;100.00;100400.03;5049567;28;20096;-65
2023/12/01 02:46:29;;;;;;;51.80;19.55;;;;;;;-1.73;100.00;100401.59;5049537;28;20032;-66
2023/12/01 02:48:55;;;;;;;58.17;19.70;;;;;;;-1.71;100.00;100404.06;5048193;28;20112;-66
2023/12/01 02:51:21;;;;;;;63.55;23.00;;;;;;;-1.75;100.00;100400.19;5049629;28;20067;-66
2023/12/01 02:53:46;;;;;;;54.83;20.52;;;;;;;-1.74;100.00;100399.94;5049401;28;20076;-66
2023/12/01 02:56:12;;;;;;;58.25;21.38;;;;;;;-1.74;100.00;100393.66;5049580;28;20395;-67
2023/12/01 02:58:37;;;;;;;63.30;22.65;;;;;;;-1.70;100.00;100394.03;5049861;28;20434;-66
2023/12/01 03:01:03;;;;;;;57.47;20.63;;;;;;;-1.72;100.00;100399.69;5049629;28;20033;-66
2023/12/01 03:03:28;;;;;;;58.55;20.73;;;;;;;-1.74;100.00;100399.94;5049307;28;20532;-66
2023/12/01 03:05:53;;;;;;;64.72;22.95;;;;;;;-1.76;100.00;100396.63;5049080;28;20477;-66
2023/12/01 03:08:19;;;;;;;54.63;20.70;;;;;;;-1.77;100.00;100377.88;5047689;28;20128;-66
2023/12/01 03:10:44;;;;;;;59.85;21.52;;;;;;;-1.71;100.00;100395.91;5049363;28;20487;-66
2023/12/01 03:13:09;;;;;;;55.72;19.83;;;;;;;-1.67;100.00;100393.56;5049284;28;20029;-65
2023/12/01 03:15:34;;;;;;;62.35;21.83;;;;;;;-1.67;100.00;100398.97;5049195;28;20109;-66
2023/12/01 03:18:00;;;;;;;57.67;20.80;;;;;;;-1.68;100.00;100398.16;5049257;28;20143;-65
2023/12/01 03:20:27;;;;;;;59.88;19.45;;;;;;;-1.78;100.00;100393.31;5052055;28;20029;-66
2023/12/01 03:22:53;;;;;;;56.17;21.83;;;;;;;-1.90;100.00;100403.34;5053868;28;20104;-66
2023/12/01 03:25:18;;;;;;;52.45;19.55;;;;;;;-1.92;100.00;100405.47;5053449;28;20498;-65
2023/12/01 03:27:46;;;;;;;56.42;17.85;;;;;;;-1.99;100.00;100412.88;5053489;28;20448;-65
2023/12/01 03:30:16;;;;;;;49.63;16.42;;;;;;;-1.96;100.00;100407.81;5053378;28;20029;-65
2023/12/01 03:32:49;;;;;;;57.25;20.23;;;;;;;-2.05;100.00;100404.59;5052997;28;20755;-66
2023/12/01 03:35:22;;;;;;;47.10;17.02;;;;;;;-2.02;100.00;100400.59;5052933;28;20167;-66
2023/12/01 03:37:49;;;;;;;62.88;23.85;;;;;;;-2.01;100.00;100406.84;5052770;28;20033;-65
2023/12/01 03:40:14;;;;;;;57.42;21.65;;;;;;;-1.97;100.00;100417.00;5052815;28;20033;-65
2023/12/01 03:42:45;;;;;;;47.13;16.80;;;;;;;-1.95;100.00;100414.03;5052692;28;20163;-65
2023/12/01 03:45:12;;;;;;;53.70;18.92;;;;;;;-1.97;100.00;100417.00;5052836;28;20037;-65
2023/12/01 03:47:41;;;;;;;55.63;21.05;;;;;;;-1.92;100.00;100422.53;5053017;28;20033;-65
2023/12/01 03:50:11;;;;;;;56.38;20.42;;;;;;;-1.99;100.00;100416.41;5052725;28;20397;-65
2023/12/01 03:52:37;;;;;;;61.28;21.80;;;;;;;-2.08;100.00;100415.91;5053176;28;20051;-65
2023/12/01 03:55:03;;;;;;;49.53;17.55;;;;;;;-2.06;100.00;100426.53;5052890;28;20035;-65
2023/12/01 03:57:29;;;;;;;53.75;17.58;;;;;;;-1.99;100.00;100429.97;5052884;28;20415;-65
2023/12/01 03:59:54;;;;;;;54.40;18.30;;;;;;;-1.96;100.00;100423.25;5052927;28;20696;-66
2023/12/01 04:02:21;;;;;;;52.50;19.30;;;;;;;-1.93;100.00;100422.78;5052773;28;20033;-65
2023/12/01 04:04:47;;;;;;;55.85;18.23;;;;;;;-1.95;100.00;100416.75;5052429;28;20484;-65
2023/12/01 04:07:12;;;;;;;50.35;19.20;;;;;;;-1.93;100.00;100423.59;5052274;28;20064;-65
2023/12/01 04:09:37;;;;;;;57.33;19.40;;;;;;;-1.90;100.00;100409.59;5052195;28;20052;-65
2023/12/01 04:12:03;;;;;;;50.83;17.33;;;;;;;-1.79;100.00;100424.19;5052233;28;20029;-65
2023/12/01 04:14:29;;;;;;;56.50;19.92;;;;;;;-1.82;100.00;100434.69;5052388;28;20029;-68
2023/12/01 04:16:56;;;;;;;59.17;20.73;;;;;;;-1.85;100.00;100425.16;5052339;28;20029;-67
2023/12/01 04:19:21;;;;;;;63.30;21.25;;;;;;;-1.82;100.00;100424.69;5052384;28;20091;-66
2023/12/01 04:21:46;;;;;;;59.05;21.45;;;;;;;-1.82;100.00;100426.56;5052298;28;20506;-64
2023/12/01 04:24:12;;;;;;;57.90;21.40;;;;;;;-1.85;100.00;100429.75;5052603;28;20479;-65
2023/12/01 04:26:37;;;;;;;62.85;21.20;;;;;;;-1.84;100.00;100434.94;5052565;28;20138;-64
2023/12/01 04:29:02;;;;;;;66.40;23.75;;;;;;;-1.82;100.00;100431.97;5052671;28;20468;-65
2023/12/01 04:31:27;;;;;;;71.97;24.70;;;;;;;-1.82;100.00;100443.66;5052325;28;20025;-65
2023/12/01 04:33:53;;;;;;;70.63;24.35;;;;;;;-1.84;100.00;100443.06;5052121;28;20035;-65
2023/12/01 04:36:18;;;;;;;58.65;21.80;;;;;;;-1.82;100.00;100445.53;5051933;28;20384;-65
2023/12/01 04:38:44;;;;;;;65.65;22.38;;;;;;;-1.77;100.00;100438.34;5051699;28;20052;-64
2023/12/01 04:41:09;;;;;;;65.85;23.45;;;;;;;-1.79;100.00;100448.59;5051409;28;20127;-64
2023/12/01 04:43:37;;;;;;;56.17;21.70;;;;;;;-1.84;100.00;100453.09;5051578;28;20045;-65
2023/12/01 04:46:03;;;;;;;66.68;23.75;;;;;;;-1.80;100.00;100457.81;5052893;28;20469;-65
2023/12/01 04:48:28;;;;;;;58.80;22.60;;;;;;;-1.81;100.00;100456.19;5071098;28;20048;-65
2023/12/01 04:50:53;;;;;;;60.17;22.92;;;;;;;-1.76;100.00;100467.13;5071833;28;20115;-65
2023/12/01 04:53:19;;;;;;;61.15;22.17;;;;;;;-1.75;100.00;100465.28;5058783;28;20028;-65
2023/12/01 04:55:46;;;;;;;59.75;21.58;;;;;;;-1.69;100.00;100463.47;5051814;28;20127;-65
2023/12/01 04:58:12;;;;;;;60.10;22.45;;;;;;;-1.66;100.00;100465.72;5051956;28;20068;-65
2023/12/01 05:00:37;;;;;;;55.80;22.45;;;;;;;-1.68;100.00;100473.28;5051551;28;20550;-66
2023/12/01 05:03:05;;;;;;;56.58;20.65;;;;;;;-1.61;100.00;100463.97;5060431;28;20166;-65
2023/12/01 05:05:33;;;;;;;57.45;22.23;;;;;;;-1.56;100.00;100476.84;5069564;28;20063;-64
2023/12/01 05:08:00;;;;;;;59.05;20.48;;;;;;;-1.57;100.00;100477.88;5061572;28;20541;-64
2023/12/01 05:10:28;;;;;;;50.33;19.98;;;;;;;-1.51;100.00;100484.28;5051092;28;20052;-65
2023/12/01 05:12:55;;;;;;;49.60;19.80;;;;;;;-1.52;100.00;100482.63;5059450;28;20060;-65
2023/12/01 05:15:24;;;;;;;50.75;20.70;;;;;;;-1.51;100.00;100487.78;5071157;28;20192;-65
2023/12/01 05:17:56;;;;;;;45.35;18.40;;;;;;;-1.48;100.00;100486.53;5070841;28;20029;-65
2023/12/01 05:20:25;;;;;;;53.20;20.45;;;;;;;-1.45;100.00;100496.88;5071234;28;20036;-64
2023/12/01 05:22:52;;;;;;;46.83;20.17;;;;;;;-1.47;100.00;100502.56;5070953;28;20031;-64
2023/12/01 05:25:18;;;;;;;46.17;19.55;;;;;;;-1.47;100.00;100501.75;5070741;28;20032;-64
2023/12/01 05:27:54;;;;;;;47.85;19.92;;;;;;;-1.52;100.00;100510.59;5064636;28;20020;-64
2023/12/01 05:30:24;;;;;;;45.30;18.05;;;;;;;-1.54;100.00;100503.72;5049367;28;20032;-65
2023/12/01 05:32:51;;;;;;;48.90;19.58;;;;;;;-1.59;100.00;100507.97;5057758;28;20139;-64
2023/12/01 05:35:17;;;;;;;42.83;17.85;;;;;;;-1.59;100.00;100507.13;5071066;28;20028;-64
2023/12/01 05:37:48;;;;;;;52.47;20.50;;;;;;;-1.58;100.00;100516.94;5070905;28;20026;-65
2023/12/01 05:40:23;;;;;;;45.05;18.67;;;;;;;-1.59;100.00;100520.69;5071145;28;20035;-65
2023/12/01 05:42:54;;;;;;;51.78;21.95;;;;;;;-1.69;100.00;100509.59;5069957;28;20036;-65
2023/12/01 05:45:27;;;;;;;49.45;19.38;;;;;;;-1.71;100.00;100515.25;5070730;28;20032;-65
2023/12/01 05:47:53;;;;;;;44.63;17.88;;;;;;;-1.72;100.00;100524.44;5062877;28;20334;-65
2023/12/01 05:50:30;;;;;;;47.15;18.95;;;;;;;-1.73;100.00;100523.63;5050346;28;20029;-66
2023/12/01 05:52:57;;;;;;;44.63;18.13;;;;;;;-1.68;100.00;100532.94;5050821;28;20029;-66
2023/12/01 05:55:30;;;;;;;45.55;18.55;;;;;;;-1.70;100.00;100526.94;5050695;28;20036;-66
2023/12/01 05:58:01;;;;;;;46.55;18.33;;;;;;;-1.69;100.00;100534.84;5051356;28;20059;-65
2023/12/01 06:00:31;;;;;;;43.90;17.75;;;;;;;-1.68;100.00;100532.94;5051295;28;20021;-65
2023/12/01 06:02:59;;;;;;;45.72;18.40;;;;;;;-1.73;100.00;100525.50;5057115;28;20102;-66
2023/12/01 06:05:25;;;;;;;45.80;17.88;;;;;;;-1.64;100.00;100531.44;5070601;28;20051;-65
2023/12/01 06:07:54;;;;;;;42.22;17.10;;;;;;;-1.62;100.00;100527.41;5070445;28;20048;-65
2023/12/01 06:10:21;;;;;;;47.35;17.60;;;;;;;-1.56;100.00;100525.66;5070439;28;20540;-66
2023/12/01 06:12:47;;;;;;;48.55;20.52;;;;;;;-1.57;100.00;100519.44;5070134;28;20055;-66
2023/12/01 06:15:13;;;;;;;46.40;18.83;;;;;;;-1.57;100.00;100527.56;5069285;28;20085;-65
2023/12/01 06:17:46;;;;;;;48.05;18.25;;;;;;;-1.57;100.00;100524.84;5067376;28;20033;-66
2023/12/01 06:20:19;;;;;;;44.00;17.70;;;;;;;-1.50;100.00;100523.91;5050252;28;20032;-65
2023/12/01 06:22:48;;;;;;;42.80;16.80;;;;;;;-1.45;100.00;100522.16;5050343;28;20028;-66
2023/12/01 06:25:27;;;;;;;45.55;16.52;;;;;;;-1.49;100.00;100518.25;5050323;28;20153;-66
2023/12/01 06:28:02;;;;;;;43.58;17.83;;;;;;;-1.43;100.00;100532.75;5053533;28;20100;-66
2023/12/01 06:30:33;;;;;;;46.83;17.98;;;;;;;-1.42;100.00;100534.41;5050717;28;20069;-65
2023/12/01 06:32:59;;;;;;;44.50;16.95;;;;;;;-1.37;100.00;100534.53;5048352;28;20055;-66
2023/12/01 06:35:24;;;;;;;46.90;17.88;;;;;;;-1.34;100.00;100534.06;5049636;28;20650;-65
2023/12/01 06:37:49;;;;;;;43.92;17.75;;;;;;;-1.36;100.00;100535.38;5049425;28;20029;-65
2023/12/01 06:40:16;;;;;;;46.03;17.92;;;;;;;-1.34;100.00;100535.97;5049591;28;20039;-64
2023/12/01 06:42:46;;;;;;;44.58;17.60;;;;;;;-1.28;100.00;100544.00;5049440;28;20067;-65
2023/12/01 06:45:13;;;;;;;45.40;17.00;;;;;;;-1.28;100.00;100533.16;5050329;28;20431;-65
2023/12/01 06:47:40;;;;;;;44.75;16.85;;;;;;;-1.24;100.00;100538.94;5058298;28;20033;-65
2023/12/01 06:50:08;;;;;;;43.63;16.55;;;;;;;-1.21;100.00;100532.19;5062800;28;20483;-65
2023/12/01 06:52:33;;;;;;;45.55;16.70;;;;;;;-1.21;100.00;100534.91;5056890;28;20075;-65
2023/12/01 06:54:59;;;;;;;45.25;18.23;;;;;;;-1.24;100.00;100538.94;5048690;28;20021;-66
2023/12/01 06:57:24;;;;;;;43.80;16.30;;;;;;;-1.27;100.00;100542.91;5050132;28;20058;-66
2023/12/01 06:59:49;;;;;;;42.70;16.17;;;;;;;-1.24;100.00;100555.22;5049657;28;20460;-66
2023/12/01 07:02:17;;;;;;;44.38;17.25;;;;;;;-1.20;100.00;100555.56;5049451;28;20044;-66
2023/12/01 07:04:44;;;;;;;49.50;18.23;;;;;;;-1.22;100.00;100558.50;5066943;28;20750;-66
2023/12/01 07:07:09;;;;;;;42.85;17.27;;;;;;;-1.21;100.00;100559.34;5069967;28;20091;-66
2023/12/01 07:09:34;;;;;;;43.83;18.85;;;;;;;-1.26;100.00;100554.63;5069191;28;20052;-66
2023/12/01 07:12:03;;;;;;;43.72;16.92;;;;;;;-1.26;100.00;100563.56;5069059;28;20797;-66
2023/12/01 07:14:29;;;;;;;43.10;17.10;;;;;;;-1.22;100.00;100568.53;5068633;28;20028;-66
2023/12/01 07:16:54;;;;;;;46.22;17.60;;;;;;;-1.21;100.00;100571.00;5068491;28;20021;-66
2023/12/01 07:19:20;;;;;;;48.13;18.13;;;;;;;-1.19;100.00;100574.31;5068590;28;20119;-66
2023/12/01 07:21:45;;;;;;;45.08;17.35;;;;;;;-1.13;100.00;100575.28;5068659;28;20063;-66
2023/12/01 07:24:11;;;;;;;47.03;18.48;;;;;;;-1.15;100.00;100575.53;5067057;28;20032;-65
2023/12/01 07:26:36;;;;;;;42.42;16.52;;;;;;;-1.15;100.00;100582.81;5067129;28;20044;-66
2023/12/01 07:29:04;;;;;;;42.25;16.77;;;;;;;-1.15;100.00;100574.69;5068042;28;20033;-66
2023/12/01 07:31:30;;;;;;;41.90;16.52;;;;;;;-1.16;100.00;100573.88;5069359;28;20036;-66
2023/12/01 07:33:55;;;;;;;45.45;17.83;;;;;;;-1.18;100.00;100584.13;5068518;28;20112;-66
2023/12/01 07:36:21;;;;;;;45.00;15.88;;;;;;;-1.17;100.00;100580.34;5068487;28;20073;-66
2023/12/01 07:38:46;;;;;;;43.22;15.82;;;;;;;-1.16;100.00;100583.88;5068174;28;20115;-66
2023/12/01 07:41:13;;;;;;;44.80;16.83;;;;;;;-1.13;100.00;100586.13;5052745;28;20037;-67
2023/12/01 07:43:40;;;;;;;43.63;18.00;;;;;;;-1.07;100.00;100579.75;5055505;28;20059;-66
2023/12/01 07:46:06;;;;;;;45.92;17.85;;;;;;;-1.06;100.00;100581.41;5069885;28;20499;-66
2023/12/01 07:48:32;;;;;;;42.92;16.67;;;;;;;-1.04;100.00;100578.50;5068795;28;20033;-66
2023/12/01 07:50:57;;;;;;;41.78;16.75;;;;;;;-1.01;100.00;100586.16;5055270;28;20457;-65
2023/12/01 07:53:24;;;;;;;41.95;15.45;;;;;;;-1.03;100.00;100577.41;5052789;28;20017;-65
2023/12/01 07:55:50;;;;;;;42.38;18.17;;;;;;;-1.06;100.00;100583.31;5069083;28;20081;-65
2023/12/01 07:58:16;;;;;;;38.30;14.57;;;;;;;-1.08;100.00;100582.72;5068917;28;20024;-65
2023/12/01 08:00:41;;;;;;;35.65;13.43;;;;;;;-1.12;100.00;100579.66;5069529;28;20064;-65
2023/12/01 08:03:07;;;;;;;35.85;14.93;;;;;;;-1.10;100.00;100578.34;5068969;28;20138;-65
2023/12/01 08:05:32;;;;;;;37.42;13.40;;;;;;;-1.10;100.00;100581.06;5069572;28;20052;-64
2023/12/01 08:07:57;;;;;;;37.28;13.40;;;;;;;-1.12;100.00;100576.94;5072317;28;20029;-65
2023/12/01 08:10:23;;;;;;;38.10;12.90;;;;;;;-1.13;100.00;100572.56;5052822;28;20052;-65
2023/12/01 08:12:50;;;;;;;36.05;12.77;;;;;;;-1.10;100.00;100581.06;5050457;28;20033;-65
2023/12/01 08:15:16;;;;;;;36.15;13.00;;;;;;;-1.09;100.00;100584.63;5052115;28;20025;-65
2023/12/01 08:17:43;;;;;;;33.83;11.98;;;;;;;-1.07;100.00;100589.81;5052196;28;20025;-65
2023/12/01 08:20:10;;;;;;;34.55;11.93;;;;;;;-1.06;100.00;100589.56;5068844;28;20043;-70
2023/12/01 08:22:37;;;;;;;32.72;12.18;;;;;;;-1.02;100.00;100595.34;5072523;28;20032;-67
2023/12/01 08:25:06;;;;;;;32.00;11.70;;;;;;;-1.02;100.00;100596.19;5072197;28;20040;-67
2023/12/01 08:27:33;;;;;;;32.83;11.23;;;;;;;-1.02;100.00;100596.19;5071816;28;20055;-67
2023/12/01 08:29:58;;;;;;;33.90;12.43;;;;;;;-0.99;100.00;100594.88;5072295;28;20045;-68
2023/12/01 08:32:24;;;;;;;37.40;13.95;;;;;;;-0.96;100.00;100613.44;5072401;28;20036;-68
2023/12/01 08:34:50;;;;;;;28.65;11.18;;;;;;;-1.01;100.00;100610.59;5058899;28;20545;-69
2023/12/01 08:37:16;;;;;;;32.33;11.18;;;;;;;-0.98;100.00;100608.22;5052297;28;20041;-68
2023/12/01 08:39:43;;;;;;;32.03;13.18;;;;;;;-1.03;100.00;100613.53;5052049;28;20060;-68
2023/12/01 08:42:08;;;;;;;32.28;11.50;;;;;;;-0.96;100.00;100616.16;5052345;28;20411;-69
2023/12/01 08:44:34;;;;;;;30.58;10.15;;;;;;;-0.96;100.00;100633.25;5054847;28;20036;-69
2023/12/01 08:46:59;;;;;;;33.03;13.60;;;;;;;-0.98;100.00;100627.22;5058493;28;20029;-69
2023/12/01 08:49:24;;;;;;;32.22;10.45;;;;;;;-0.99;100.00;100622.84;5054251;28;20036;-69
2023/12/01 08:51:55;;;;;;;33.10;11.27;;;;;;;-0.95;100.00;100621.34;5065583;28;20037;-68
2023/12/01 08:54:21;;;;;;;31.17;10.93;;;;;;;-0.90;100.00;100633.41;5059189;28;20033;-69
2023/12/01 08:56:46;;;;;;;30.40;11.63;;;;;;;-0.88;100.00;100626.66;5060030;28;20036;-68
2023/12/01 08:59:12;;;;;;;32.65;11.70;;;;;;;-0.91;100.00;100631.75;5060586;28;20017;-69
2023/12/01 09:01:37;;;;;;;30.08;11.27;;;;;;;-0.89;100.00;100626.88;5069654;28;20041;-69
2023/12/01 09:04:02;;;;;;;30.20;11.80;;;;;;;-0.84;100.00;100627.00;5063552;28;20028;-69
2023/12/01 09:06:28;;;;;;;31.92;10.25;;;;;;;-0.84;100.00;100630.53;5061131;28;20068;-70
2023/12/01 09:08:53;;;;;;;34.55;11.57;;;;;;;-0.80;100.00;100639.03;5074624;28;20028;-69
2023/12/01 09:11:18;;;;;;;31.70;11.65;;;;;;;-0.82;100.00;100635.75;5063642;28;20029;-68
2023/12/01 09:13:44;;;;;;;29.10;9.45;;;;;;;-0.81;100.00;100626.56;5061491;28;20037;-68
2023/12/01 09:16:09;;;;;;;30.42;10.15;;;;;;;-0.74;100.00;100638.13;5071634;28;20051;-69
2023/12/01 09:18:35;;;;;;;31.63;11.05;;;;;;;-0.73;100.00;100639.78;5073493;28;20512;-69
2023/12/01 09:21:00;;;;;;;33.28;11.23;;;;;;;-0.70;100.00;100639.28;5067085;28;20059;-68
2023/12/01 09:23:26;;;;;;;32.03;11.77;;;;;;;-0.68;100.00;100639.88;5050373;28;20037;-68
2023/12/01 09:25:51;;;;;;;31.33;11.10;;;;;;;-0.68;100.00;100647.22;5069685;28;20055;-69
2023/12/01 09:28:17;;;;;;;33.00;11.60;;;;;;;-0.65;100.00;100650.28;5064073;28;20036;-67
2023/12/01 09:30:42;;;;;;;30.80;10.73;;;;;;;-0.64;100.00;100656.53;5065984;28;20131;-65
2023/12/01 09:33:08;;;;;;;31.05;10.60;;;;;;;-0.63;100.00;100663.63;5063439;28;20481;-67
2023/12/01 09:35:33;;;;;;;31.52;11.18;;;;;;;-0.59;100.00;100653.13;5039773;28;20044;-67
2023/12/01 09:37:58;;;;;;;30.23;11.55;;;;;;;-0.63;100.00;100661.75;5055841;28;20045;-67
2023/12/01 09:40:24;;;;;;;31.42;11.98;;;;;;;-0.65;100.00;100672.03;5054253;28;20032;-67
2023/12/01 09:42:50;;;;;;;32.80;12.20;;;;;;;-0.72;100.00;100674.03;5056128;28;20372;-66
2023/12/01 09:45:23;;;;;;;28.75;10.35;;;;;;;-0.72;100.00;100662.31;5055269;28;20091;-67
2023/12/01 09:47:52;;;;;;;32.37;12.87;;;;;;;-0.71;100.00;100672.13;5051826;28;20063;-66
2023/12/01 09:50:18;;;;;;;28.27;10.00;;;;;;;-0.64;100.00;100670.13;5048263;28;20025;-66
2023/12/01 09:52:43;;;;;;;30.95;10.68;;;;;;;-0.56;100.00;100668.97;5049529;28;20087;-67
2023/12/01 09:55:09;;;;;;;29.42;9.88;;;;;;;-0.50;100.00;100670.72;5050906;28;20040;-68
2023/12/01 09:57:35;;;;;;;27.58;9.00;;;;;;;-0.44;100.00;100674.38;5050433;28;20418;-68
2023/12/01 10:00:00;;;;;;;30.60;11.30;;;;;;;-0.40;100.00;100678.28;5049260;28;20031;-66
2023/12/01 10:02:27;;;;;;;30.52;10.82;;;;;;;-0.38;100.00;100673.47;5049496;28;20028;-67
2023/12/01 10:05:00;;;;;;;28.98;10.65;;;;;;;-0.38;100.00;100674.28;5049406;28;20617;-67
2023/12/01 10:07:25;;;;;;;29.75;10.85;;;;;;;-0.35;100.00;100676.53;5048952;28;20052;-67
2023/12/01 10:09:51;;;;;;;30.95;11.27;;;;;;;-0.32;100.00;100683.38;5056833;28;20086;-66
2023/12/01 10:12:17;;;;;;;27.45;9.82;;;;;;;-0.29;100.00;100682.06;5069281;28;20098;-67
2023/12/01 10:14:42;;;;;;;30.63;11.68;;;;;;;-0.29;100.00;100674.75;5069201;28;20040;-68
2023/12/01 10:17:09;;;;;;;27.02;9.18;;;;;;;-0.22;100.00;100680.88;5069417;28;20461;-67
2023/12/01 10:19:44;;;;;;;29.88;11.85;;;;;;;-0.26;100.00;100687.03;5069041;28;20464;-67
2023/12/01 10:22:11;;;;;;;31.48;11.25;;;;;;;-0.35;100.00;100678.41;5069404;28;20031;-67
2023/12/01 10:24:37;;;;;;;30.65;10.57;;;;;;;-0.33;100.00;100670.84;5064694;28;20090;-67
2023/12/01 10:27:05;;;;;;;31.33;10.88;;;;;;;-0.35;100.00;100668.38;5050188;28;20425;-67
2023/12/01 10:29:32;;;;;;;29.42;10.55;;;;;;;-0.46;100.00;100669.19;5049826;28;20029;-67
2023/12/01 10:32:04;;;;;;;29.98;11.40;;;;;;;-0.50;100.00;100678.88;5049753;28;20032;-67
2023/12/01 10:34:30;;;;;;;30.02;10.43;;;;;;;-0.54;100.00;100683.16;5049804;28;20025;-67
2023/12/01 10:36:56;;;;;;;30.83;11.75;;;;;;;-0.54;100.00;100677.72;5049667;28;20028;-68
2023/12/01 10:39:24;;;;;;;29.95;11.07;;;;;;;-0.53;100.00;100680.19;5052279;28;20028;-68
2023/12/01 10:41:50;;;;;;;29.52;10.70;;;;;;;-0.47;100.00;100681.94;5070178;28;20116;-68
2023/12/01 10:44:16;;;;;;;28.48;10.23;;;;;;;-0.44;100.00;100671.66;5070575;28;20119;-68
2023/12/01 10:46:45;;;;;;;31.35;10.63;;;;;;;-0.35;100.00;100672.97;5071348;28;20032;-67
2023/12/01 10:49:13;;;;;;;31.67;12.63;;;;;;;-0.43;100.00;100679.59;5070908;28;20024;-66
2023/12/01 10:51:40;;;;;;;31.23;10.85;;;;;;;-0.57;100.00;100679.00;5070345;28;20052;-67
2023/12/01 10:54:09;;;;;;;31.15;10.63;;;;;;;-0.53;100.00;100682.09;5070418;28;20042;-67
2023/12/01 10:56:43;;;;;;;31.00;10.63;;;;;;;-0.45;100.00;100673.56;5029633;28;20033;-67
2023/12/01 10:59:11;;;;;;;30.30;10.75;;;;;;;-0.40;100.00;100670.97;5029729;28;20120;-67